createdAt,value
2019-06-10T00:02:22.401Z,56.40
2019-06-10T00:04:51.394Z,56.30
2019-06-10T00:07:21.617Z,56.50
2019-06-10T00:09:52.454Z,56.60
2019-06-10T00:12:21.450Z,57.00
2019-06-10T00:14:51.014Z,57.10
2019-06-10T00:17:21.402Z,57.20
2019-06-10T00:19:51.140Z,57.10
2019-06-10T00:22:21.589Z,57.30
2019-06-10T00:24:52.171Z,57.30
2019-06-10T00:27:21.675Z,57.20
2019-06-10T00:29:52.384Z,57.10
2019-06-10T00:32:22.585Z,57.20
2019-06-10T00:34:51.703Z,57.40
2019-06-10T00:37:21.329Z,57.60
2019-06-10T00:39:51.738Z,57.70
2019-06-10T00:42:21.402Z,57.70
2019-06-10T00:44:51.261Z,57.70
2019-06-10T00:47:21.172Z,57.70
2019-06-10T00:49:51.487Z,57.70
2019-06-10T00:52:21.314Z,57.60
2019-06-10T00:54:51.861Z,57.60
2019-06-10T00:57:21.871Z,57.50
2019-06-10T00:59:51.369Z,57.40
2019-06-10T01:02:21.356Z,57.30
2019-06-10T01:04:51.365Z,57.20
2019-06-10T01:07:21.788Z,57.10
2019-06-10T01:09:52.260Z,57.10
2019-06-10T01:12:21.277Z,57.00
2019-06-10T01:14:51.666Z,56.80
2019-06-10T01:17:21.338Z,56.40
2019-06-10T01:19:51.000Z,56.00
2019-06-10T01:22:21.296Z,55.80
2019-06-10T01:24:51.740Z,55.50
2019-06-10T01:27:21.186Z,55.40
2019-06-10T01:29:51.098Z,55.40
2019-06-10T01:32:21.728Z,55.30
2019-06-10T01:34:51.090Z,55.80
2019-06-10T01:37:21.773Z,55.20
2019-06-10T01:39:51.495Z,55.20
2019-06-10T01:42:21.592Z,55.30
2019-06-10T01:44:51.158Z,55.20
2019-06-10T01:47:21.557Z,55.20
2019-06-10T01:49:51.665Z,55.20
2019-06-10T01:52:21.295Z,55.30
2019-06-10T01:54:51.509Z,55.30
2019-06-10T01:57:22.019Z,55.20
2019-06-10T01:59:52.184Z,55.30
2019-06-10T02:02:23.951Z,55.40
2019-06-10T02:04:53.242Z,55.40
2019-06-10T02:07:22.988Z,55.30
2019-06-10T02:09:52.354Z,55.30
2019-06-10T02:12:24.181Z,55.10
2019-06-10T02:14:57.714Z,55.10
2019-06-10T02:17:27.014Z,55.10
2019-06-10T02:19:56.006Z,55.00
2019-06-10T02:22:25.307Z,55.10
2019-06-10T02:24:54.624Z,55.10
2019-06-10T02:27:23.606Z,55.10
2019-06-10T02:29:52.901Z,55.10
2019-06-10T02:32:31.341Z,55.10
2019-06-10T02:35:03.427Z,55.10
2019-06-10T02:37:31.299Z,55.10
2019-06-10T02:39:54.317Z,55.10
2019-06-10T02:42:30.389Z,55.20
2019-06-10T02:44:55.880Z,55.30
2019-06-10T02:47:36.189Z,55.30
2019-06-10T02:50:07.090Z,55.40
2019-06-10T02:52:37.118Z,55.40
2019-06-10T02:55:04.331Z,55.40
2019-06-10T02:57:39.465Z,55.50
2019-06-10T03:00:06.631Z,55.50
2019-06-10T03:02:36.432Z,55.60
2019-06-10T03:05:06.163Z,55.60
2019-06-10T03:07:35.961Z,55.70
2019-06-10T03:10:09.666Z,55.70
2019-06-10T03:12:39.069Z,55.90
2019-06-10T03:15:09.190Z,55.90
2019-06-10T03:17:38.188Z,56.60
2019-06-10T03:20:07.250Z,56.00
2019-06-10T03:22:36.481Z,56.00
2019-06-10T03:25:07.410Z,56.10
2019-06-10T03:27:36.300Z,56.10
2019-06-10T03:30:15.347Z,56.20
2019-06-10T03:32:42.732Z,56.10
2019-06-10T03:35:07.887Z,56.20
2019-06-10T03:37:37.395Z,56.20
2019-06-10T03:40:07.102Z,56.20
2019-06-10T03:42:36.095Z,56.30
2019-06-10T03:45:08.485Z,56.30
2019-06-10T03:47:37.767Z,56.60
2019-06-10T03:50:07.989Z,56.50
2019-06-10T03:52:36.983Z,56.40
2019-06-10T03:55:08.740Z,56.40
2019-06-10T03:57:37.739Z,56.50
2019-06-10T04:00:11.439Z,56.50
2019-06-10T04:02:39.713Z,56.50
2019-06-10T04:05:08.808Z,56.50
2019-06-10T04:07:38.315Z,56.40
2019-06-10T04:10:07.923Z,56.50
2019-06-10T04:12:36.915Z,56.50
2019-06-10T04:15:06.600Z,56.40
2019-06-10T04:17:36.437Z,56.50
2019-06-10T04:20:11.492Z,56.40
2019-06-10T04:22:36.883Z,56.40
2019-06-10T04:25:07.103Z,56.50
2019-06-10T04:27:36.096Z,56.50
2019-06-10T04:30:09.392Z,56.50
2019-06-10T04:32:38.384Z,56.60
2019-06-10T04:35:07.376Z,56.60
2019-06-10T04:37:36.369Z,56.50
2019-06-10T04:40:07.515Z,56.60
2019-06-10T04:42:36.509Z,56.70
2019-06-10T04:45:07.645Z,56.90
2019-06-10T04:47:36.952Z,56.80
2019-06-10T04:50:20.556Z,56.80
2019-06-10T04:52:37.761Z,56.80
2019-06-10T04:55:06.694Z,56.90
2019-06-10T04:57:36.611Z,57.40
2019-06-10T05:00:11.379Z,57.50
2019-06-10T05:02:37.058Z,57.50
2019-06-10T05:05:06.047Z,57.40
2019-06-10T05:07:37.049Z,57.20
2019-06-10T05:10:09.255Z,57.90
2019-06-10T05:12:38.253Z,57.20
2019-06-10T05:15:07.245Z,57.00
2019-06-10T05:17:36.236Z,56.90
2019-06-10T05:20:08.919Z,56.70
2019-06-10T05:22:38.222Z,57.00
2019-06-10T05:25:07.216Z,57.00
2019-06-10T05:27:36.211Z,56.90
2019-06-10T05:30:07.968Z,56.80
2019-06-10T05:32:37.884Z,56.80
2019-06-10T05:35:06.879Z,56.80
2019-06-10T05:37:36.474Z,56.70
2019-06-10T05:40:07.411Z,56.70
2019-06-10T05:42:36.312Z,64.00
2019-06-10T05:45:07.448Z,61.50
2019-06-10T05:47:36.464Z,62.40
2019-06-10T05:50:07.277Z,62.30
2019-06-10T05:52:37.500Z,61.60
2019-06-10T05:55:07.414Z,61.10
2019-06-10T05:57:36.406Z,60.70
2019-06-10T06:00:13.874Z,60.30
2019-06-10T06:02:43.117Z,60.20
2019-06-10T06:05:12.809Z,60.10
2019-06-10T06:07:42.302Z,60.00
2019-06-10T06:10:13.022Z,59.90
2019-06-10T06:12:42.574Z,59.80
2019-06-10T06:15:13.089Z,59.70
2019-06-10T06:17:43.186Z,59.70
2019-06-10T06:20:13.303Z,59.60
2019-06-10T06:22:52.124Z,59.50
2019-06-10T06:25:23.978Z,59.50
2019-06-10T06:27:52.453Z,59.40
2019-06-10T06:30:23.118Z,59.30
2019-06-10T06:32:53.280Z,59.20
2019-06-10T06:35:22.702Z,59.10
2019-06-10T06:37:53.949Z,59.00
2019-06-10T06:40:23.072Z,58.90
2019-06-10T06:42:52.598Z,58.80
2019-06-10T06:45:22.184Z,58.70
2019-06-10T06:47:52.766Z,58.60
2019-06-10T06:50:25.405Z,58.50
2019-06-10T06:53:20.091Z,58.50
2019-06-10T06:55:25.028Z,58.40
2019-06-10T06:57:54.122Z,58.30
2019-06-10T07:00:51.027Z,58.10
2019-06-10T07:03:04.089Z,58.10
2019-06-10T07:05:37.193Z,58.50
2019-06-10T07:08:06.992Z,57.90
2019-06-10T07:10:37.315Z,57.80
2019-06-10T07:13:07.332Z,57.70
2019-06-10T07:15:46.524Z,57.70
2019-06-10T07:18:13.044Z,57.60
2019-06-10T07:20:45.612Z,57.50
2019-06-10T07:23:12.990Z,57.50
2019-06-10T07:25:46.590Z,57.40
2019-06-10T07:28:12.547Z,57.30
2019-06-10T07:30:48.148Z,57.20
2019-06-10T07:33:12.494Z,57.20
2019-06-10T07:35:44.106Z,57.10
2019-06-10T07:38:13.250Z,56.90
2019-06-10T07:40:45.459Z,56.90
2019-06-10T07:43:12.870Z,56.80
2019-06-10T07:45:45.858Z,56.70
2019-06-10T07:48:14.435Z,56.60
2019-06-10T07:50:45.386Z,56.60
2019-06-10T07:53:13.958Z,56.50
2019-06-10T07:55:46.252Z,56.50
2019-06-10T07:58:13.478Z,56.40
2019-06-10T08:00:46.566Z,56.30
2019-06-10T08:03:12.937Z,56.20
2019-06-10T08:05:44.386Z,56.10
2019-06-10T08:08:12.985Z,56.10
2019-06-10T08:10:49.606Z,56.00
2019-06-10T08:13:18.497Z,55.90
2019-06-10T08:15:48.408Z,55.80
2019-06-10T08:18:17.406Z,55.70
2019-06-10T08:20:47.475Z,55.70
2019-06-10T08:23:18.165Z,55.60
2019-06-10T08:25:53.322Z,55.60
2019-06-10T08:28:18.394Z,55.50
2019-06-10T08:30:48.515Z,55.40
2019-06-10T08:33:17.919Z,55.30
2019-06-10T08:35:56.080Z,55.30
2019-06-10T08:38:18.565Z,55.30
2019-06-10T08:40:48.521Z,55.10
2019-06-10T08:43:17.780Z,55.10
2019-06-10T08:45:47.519Z,55.10
2019-06-10T08:48:17.303Z,55.00
2019-06-10T08:50:48.738Z,55.00
2019-06-10T08:53:18.256Z,55.00
2019-06-10T08:55:49.497Z,54.90
2019-06-10T08:58:17.578Z,54.80
2019-06-10T09:00:49.290Z,54.80
2019-06-10T09:03:17.201Z,54.70
2019-06-10T09:05:49.345Z,54.70
2019-06-10T09:08:18.461Z,54.60
2019-06-10T09:10:49.895Z,54.60
2019-06-10T09:13:18.088Z,54.50
2019-06-10T09:16:03.720Z,54.50
2019-06-10T09:18:20.186Z,54.40
2019-06-10T09:20:52.402Z,54.40
2019-06-10T09:23:22.579Z,54.30
2019-06-10T09:25:52.899Z,54.30
2019-06-10T09:28:19.614Z,54.30
2019-06-10T09:30:54.024Z,54.30
2019-06-10T09:33:22.370Z,54.30
2019-06-10T09:35:52.812Z,54.30
2019-06-10T09:38:22.351Z,54.20
2019-06-10T09:41:00.929Z,54.30
2019-06-10T09:43:23.737Z,54.20
2019-06-10T09:45:56.262Z,54.20
2019-06-10T09:48:23.523Z,54.10
2019-06-10T09:50:57.884Z,54.10
2019-06-10T09:53:32.790Z,54.10
2019-06-10T09:55:55.551Z,54.10
2019-06-10T09:58:24.542Z,54.00
2019-06-10T10:00:58.350Z,53.90
2019-06-10T10:03:27.350Z,53.90
2019-06-10T10:06:10.104Z,53.90
2019-06-10T10:08:26.864Z,53.80
2019-06-10T10:10:58.750Z,53.80
2019-06-10T10:13:26.712Z,53.70
2019-06-10T10:15:55.992Z,53.70
2019-06-10T10:18:24.996Z,53.60
2019-06-10T10:20:58.736Z,53.50
2019-06-10T10:23:25.743Z,53.40
2019-06-10T10:25:57.337Z,53.40
2019-06-10T10:28:26.599Z,53.40
2019-06-10T10:30:57.933Z,53.30
2019-06-10T10:33:29.931Z,53.30
2019-06-10T10:35:57.154Z,53.30
2019-06-10T10:38:26.455Z,53.20
2019-06-10T10:40:58.785Z,53.20
2019-06-10T10:43:33.247Z,53.20
2019-06-10T10:46:00.053Z,53.20
2019-06-10T10:48:27.035Z,53.10
2019-06-10T10:50:57.258Z,53.10
2019-06-10T10:53:27.654Z,53.00
2019-06-10T10:55:56.799Z,53.00
2019-06-10T10:58:25.832Z,52.90
2019-06-10T11:00:58.003Z,52.90
2019-06-10T11:03:25.293Z,53.40
2019-06-10T11:06:00.448Z,52.90
2019-06-10T11:08:24.818Z,52.80
2019-06-10T11:10:58.884Z,52.80
2019-06-10T11:13:26.500Z,52.80
2019-06-10T11:15:57.114Z,52.80
2019-06-10T11:18:26.010Z,52.60
2019-06-10T11:20:55.003Z,52.40
2019-06-10T11:23:24.008Z,52.40
2019-06-10T11:25:55.458Z,52.40
2019-06-10T11:28:23.573Z,52.20
2019-06-10T11:30:56.351Z,52.20
2019-06-10T11:33:23.049Z,52.10
2019-06-10T11:35:55.143Z,52.10
2019-06-10T11:38:23.425Z,52.60
2019-06-10T11:40:56.351Z,52.10
2019-06-10T11:43:23.046Z,52.00
2019-06-10T11:45:58.925Z,52.00
2019-06-10T11:48:23.834Z,51.80
2019-06-10T11:50:56.465Z,51.80
2019-06-10T11:53:24.310Z,51.80
2019-06-10T11:55:53.792Z,51.60
2019-06-10T11:58:25.287Z,51.50
2019-06-10T12:01:05.653Z,51.40
2019-06-10T12:03:42.770Z,51.40
2019-06-10T12:06:09.750Z,51.10
2019-06-10T12:08:38.955Z,51.10
2019-06-10T12:11:08.362Z,50.80
2019-06-10T12:13:37.448Z,50.90
2019-06-10T12:16:51.544Z,51.40
2019-06-10T12:18:36.970Z,50.70
2019-06-10T12:21:05.868Z,50.50
2019-06-10T12:23:34.958Z,50.50
2019-06-10T12:26:04.984Z,50.50
2019-06-10T12:28:34.478Z,50.40
2019-06-10T12:31:06.834Z,50.10
2019-06-10T12:33:33.898Z,50.20
2019-06-10T12:36:06.577Z,50.10
2019-06-10T12:38:33.618Z,50.00
2019-06-10T12:41:07.982Z,50.00
2019-06-10T12:43:33.567Z,49.80
2019-06-10T12:46:03.385Z,49.80
2019-06-10T12:48:34.092Z,49.50
2019-06-10T12:51:06.351Z,49.70
2019-06-10T12:53:33.818Z,49.60
2019-06-10T12:56:08.014Z,49.50
2019-06-10T12:58:33.705Z,49.40
2019-06-10T13:01:05.584Z,49.20
2019-06-10T13:03:33.967Z,49.00
2019-06-10T13:06:07.316Z,49.00
2019-06-10T13:08:35.777Z,48.80
2019-06-10T13:11:05.384Z,48.70
2019-06-10T13:13:34.684Z,48.50
2019-06-10T13:16:06.794Z,48.20
2019-06-10T13:18:34.308Z,48.20
2019-06-10T13:21:10.015Z,48.00
2019-06-10T13:23:35.391Z,48.00
2019-06-10T13:26:11.911Z,47.90
2019-06-10T13:28:37.145Z,47.90
2019-06-10T13:31:07.977Z,47.70
2019-06-10T13:33:36.461Z,47.80
2019-06-10T13:36:06.902Z,47.50
2019-06-10T13:38:35.674Z,47.50
2019-06-10T13:41:05.817Z,47.40
2019-06-10T13:43:35.297Z,47.40
2019-06-10T13:46:07.418Z,47.40
2019-06-10T13:48:37.489Z,47.40
2019-06-10T13:51:10.002Z,47.20
2019-06-10T13:53:36.802Z,47.00
2019-06-10T13:56:27.613Z,47.00
2019-06-10T13:58:36.322Z,47.00
2019-06-10T14:01:09.432Z,47.00
2019-06-10T14:03:35.748Z,46.80
2019-06-10T14:06:32.351Z,46.90
2019-06-10T14:08:38.963Z,46.70
2019-06-10T14:11:07.971Z,46.70
2019-06-10T14:13:37.258Z,46.70
2019-06-10T14:16:07.465Z,46.50
2019-06-10T14:18:36.784Z,46.40
2019-06-10T14:21:08.920Z,46.50
2019-06-10T14:23:36.290Z,46.40
2019-06-10T14:26:07.595Z,45.90
2019-06-10T14:28:40.535Z,46.30
2019-06-10T14:31:28.004Z,45.90
2019-06-10T14:33:36.565Z,46.00
2019-06-10T14:36:05.927Z,45.90
2019-06-10T14:38:36.084Z,46.00
2019-06-10T14:41:06.464Z,46.10
2019-06-10T14:43:36.015Z,46.10
2019-06-10T14:46:07.238Z,46.10
2019-06-10T14:48:36.049Z,46.00
2019-06-10T14:51:05.398Z,46.10
2019-06-10T14:53:34.649Z,46.00
2019-06-10T14:56:03.988Z,45.90
2019-06-10T14:58:33.561Z,46.00
2019-06-10T15:01:04.611Z,45.90
2019-06-10T15:03:33.081Z,45.80
2019-06-10T15:06:03.080Z,45.80
2019-06-10T15:08:32.477Z,45.80
2019-06-10T15:11:01.596Z,45.90
2019-06-10T15:13:32.605Z,45.80
2019-06-10T15:16:04.341Z,45.70
2019-06-10T15:18:32.995Z,45.60
2019-06-10T15:21:02.766Z,45.70
2019-06-10T15:23:32.457Z,45.90
2019-06-10T15:26:02.868Z,45.80
2019-06-10T15:28:33.153Z,45.70
2019-06-10T15:31:02.979Z,45.80
2019-06-10T15:33:32.787Z,45.70
2019-06-10T15:36:02.422Z,45.80
2019-06-10T15:38:32.741Z,45.80
2019-06-10T15:41:02.113Z,45.60
2019-06-10T15:43:33.098Z,45.60
2019-06-10T15:46:05.493Z,45.80
2019-06-10T15:48:34.719Z,45.60
2019-06-10T15:51:03.611Z,45.60
2019-06-10T15:53:32.896Z,45.70
2019-06-10T15:56:18.023Z,45.60
2019-06-10T15:58:32.842Z,45.60
2019-06-10T16:01:02.844Z,45.50
2019-06-10T16:03:33.064Z,45.40
2019-06-10T16:06:03.085Z,45.60
2019-06-10T16:08:33.119Z,45.40
2019-06-10T16:11:03.072Z,45.50
2019-06-10T16:13:32.681Z,45.40
2019-06-10T16:16:03.621Z,45.10
2019-06-10T16:18:33.020Z,45.20
2019-06-10T16:21:04.256Z,45.20
2019-06-10T16:23:34.005Z,45.90
2019-06-10T16:26:07.037Z,45.20
2019-06-10T16:28:36.327Z,45.80
2019-06-10T16:31:05.320Z,45.20
2019-06-10T16:33:35.233Z,45.30
2019-06-10T16:36:04.534Z,45.40
2019-06-10T16:38:33.527Z,45.20
2019-06-10T16:41:03.490Z,45.20
2019-06-10T16:43:33.572Z,45.40
2019-06-10T16:46:04.712Z,45.70
2019-06-10T16:48:34.804Z,45.80
2019-06-10T16:51:04.996Z,45.80
2019-06-10T16:53:36.376Z,45.80
2019-06-10T16:56:07.695Z,45.80
2019-06-10T16:58:38.681Z,46.10
2019-06-10T17:01:09.163Z,46.20
2019-06-10T17:03:42.316Z,46.60
2019-06-10T17:06:13.729Z,47.30
2019-06-10T17:08:42.949Z,46.70
2019-06-10T17:11:12.469Z,46.60
2019-06-10T17:13:42.307Z,45.80
2019-06-10T17:16:12.714Z,46.70
2019-06-10T17:18:42.918Z,48.20
2019-06-10T17:21:13.446Z,49.00
2019-06-10T17:23:43.318Z,47.20
2019-06-10T17:26:15.090Z,48.50
2019-06-10T17:28:45.362Z,48.60
2019-06-10T17:31:14.650Z,47.70
2019-06-10T17:33:45.672Z,47.10
2019-06-10T17:36:17.144Z,48.10
2019-06-10T17:38:48.377Z,47.20
2019-06-10T17:41:17.676Z,49.00
2019-06-10T17:43:46.675Z,49.00
2019-06-10T17:46:18.742Z,48.90
2019-06-10T17:48:48.037Z,49.30
2019-06-10T17:51:17.027Z,48.20
2019-06-10T17:53:49.916Z,47.90
2019-06-10T17:56:19.011Z,48.40
2019-06-10T17:58:54.896Z,48.80
2019-06-10T18:01:22.518Z,48.50
2019-06-10T18:03:53.031Z,48.90
2019-06-10T18:06:25.933Z,48.80
2019-06-10T18:08:55.854Z,48.70
2019-06-10T18:11:26.563Z,48.80
2019-06-10T18:13:57.632Z,49.10
2019-06-10T18:16:26.625Z,48.90
2019-06-10T18:18:58.388Z,48.90
2019-06-10T18:21:28.397Z,48.90
2019-06-10T18:24:07.387Z,48.80
2019-06-10T18:26:28.953Z,48.70
2019-06-10T18:29:05.075Z,48.60
2019-06-10T18:31:29.524Z,48.50
2019-06-10T18:33:58.799Z,48.40
2019-06-10T18:36:27.979Z,48.30
2019-06-10T18:38:57.404Z,48.30
2019-06-10T18:41:27.747Z,48.40
2019-06-10T18:43:56.911Z,48.30
2019-06-10T18:46:25.905Z,48.50
2019-06-10T18:48:54.896Z,48.40
2019-06-10T18:51:27.094Z,48.40
2019-06-10T18:53:56.265Z,48.30
2019-06-10T18:56:25.258Z,48.70
2019-06-10T18:58:54.250Z,49.50
2019-06-10T19:01:23.242Z,49.00
2019-06-10T19:03:52.644Z,47.70
2019-06-10T19:06:22.920Z,48.60
2019-06-10T19:08:53.070Z,48.10
2019-06-10T19:11:22.388Z,47.20
2019-06-10T19:13:52.914Z,50.00
2019-06-10T19:16:23.496Z,48.60
2019-06-10T19:18:52.973Z,48.00
2019-06-10T19:21:22.259Z,47.80
2019-06-10T19:23:53.178Z,47.60
2019-06-10T19:26:22.391Z,47.60
2019-06-10T19:28:53.432Z,47.60
2019-06-10T19:31:21.912Z,48.00
2019-06-10T19:33:51.990Z,48.20
2019-06-10T19:36:23.127Z,48.50
2019-06-10T19:38:52.584Z,48.80
2019-06-10T19:41:24.040Z,48.60
2019-06-10T19:43:55.796Z,48.40
2019-06-10T19:46:25.188Z,48.20
2019-06-10T19:49:02.636Z,48.10
2019-06-10T19:51:26.202Z,48.10
2019-06-10T19:53:55.774Z,48.10
2019-06-10T19:56:26.474Z,48.20
2019-06-10T19:58:55.274Z,48.20
2019-06-10T20:01:24.268Z,48.20
2019-06-10T20:03:54.490Z,48.20
2019-06-10T20:06:25.216Z,48.20
2019-06-10T20:08:58.954Z,48.20
2019-06-10T20:11:27.924Z,48.10
2019-06-10T20:13:57.121Z,48.20
2019-06-10T20:16:26.520Z,48.10
2019-06-10T20:18:55.835Z,49.40
2019-06-10T20:21:24.814Z,48.70
2019-06-10T20:23:54.120Z,48.70
2019-06-10T20:26:23.519Z,48.90
2019-06-10T20:28:54.874Z,49.10
2019-06-10T20:31:23.046Z,49.10
2019-06-10T20:33:52.551Z,49.30
2019-06-10T20:36:26.669Z,49.60
2019-06-10T20:38:53.493Z,49.80
2019-06-10T20:41:22.914Z,49.90
2019-06-10T20:43:55.170Z,49.80
2019-06-10T20:46:23.491Z,49.80
2019-06-10T20:48:54.580Z,49.70
2019-06-10T20:51:26.876Z,49.80
2019-06-10T20:53:54.320Z,49.70
2019-06-10T20:56:23.531Z,50.00
2019-06-10T20:58:52.662Z,50.00
2019-06-10T21:01:25.124Z,50.00
2019-06-10T21:03:54.169Z,50.20
2019-06-10T21:06:23.586Z,50.40
2019-06-10T21:08:54.838Z,50.20
2019-06-10T21:11:23.722Z,50.20
2019-06-10T21:13:55.511Z,50.20
2019-06-10T21:16:23.247Z,49.80
2019-06-10T21:18:55.425Z,49.70
2019-06-10T21:21:24.101Z,49.50
2019-06-10T21:23:54.087Z,49.50
2019-06-10T21:26:23.759Z,49.50
2019-06-10T21:28:55.033Z,49.40
2019-06-10T21:31:24.998Z,49.50
2019-06-10T21:33:55.653Z,50.20
2019-06-10T21:36:25.328Z,49.60
2019-06-10T21:38:55.653Z,49.70
2019-06-10T21:41:24.853Z,49.80
2019-06-10T21:43:59.137Z,50.00
2019-06-10T21:46:24.372Z,49.80
2019-06-10T21:48:55.679Z,49.90
2019-06-10T21:51:23.922Z,50.10
2019-06-10T21:53:53.786Z,50.30
2019-06-10T21:56:24.953Z,50.50
2019-06-10T21:58:55.676Z,50.70
2019-06-10T22:01:25.408Z,50.90
2019-06-10T22:04:00.472Z,50.90
2019-06-10T22:06:24.919Z,51.00
2019-06-10T22:08:56.379Z,51.20
2019-06-10T22:11:24.443Z,51.20
2019-06-10T22:13:56.123Z,51.40
2019-06-10T22:16:23.965Z,51.40
2019-06-10T22:18:54.970Z,51.40
2019-06-10T22:21:24.099Z,51.40
2019-06-10T22:23:55.654Z,51.50
2019-06-10T22:26:24.552Z,51.50
2019-06-10T22:28:55.814Z,51.60
2019-06-10T22:31:26.467Z,51.40
2019-06-10T22:33:56.252Z,51.80
2019-06-10T22:36:25.126Z,51.70
2019-06-10T22:38:57.188Z,51.80
2019-06-10T22:41:24.650Z,51.80
2019-06-10T22:43:55.831Z,51.90
2019-06-10T22:46:24.179Z,51.90
2019-06-10T22:48:53.524Z,51.90
2019-06-10T22:51:22.965Z,52.00
2019-06-10T22:53:54.864Z,52.10
2019-06-10T22:56:23.519Z,52.20
2019-06-10T22:58:54.327Z,52.30
2019-06-10T23:01:33.811Z,52.50
2019-06-10T23:03:54.143Z,52.60
2019-06-10T23:06:23.506Z,52.70
2019-06-10T23:08:54.700Z,52.80
2019-06-10T23:11:24.052Z,52.90
2019-06-10T23:13:54.707Z,52.90
2019-06-10T23:16:23.761Z,53.10
2019-06-10T23:18:54.030Z,53.10
2019-06-10T23:21:23.284Z,53.30
2019-06-10T23:23:53.984Z,53.20
2019-06-10T23:26:22.806Z,53.30
2019-06-10T23:28:54.041Z,53.50
2019-06-10T23:31:23.079Z,53.60
2019-06-10T23:33:56.319Z,53.60
2019-06-10T23:36:24.307Z,53.60
2019-06-10T23:38:54.855Z,53.70
2019-06-10T23:41:24.154Z,53.80
2019-06-10T23:43:53.131Z,53.80
2019-06-10T23:46:22.753Z,53.80
2019-06-10T23:48:53.411Z,54.00
2019-06-10T23:51:22.873Z,54.00
2019-06-10T23:53:56.682Z,54.00
2019-06-10T23:56:23.932Z,54.10
2019-06-10T23:58:54.396Z,54.00
